-> Other stations

1455

Speed(max): 4.3(5.9)knots
Direction:85° ( E)
Temperature: 15.7°C
Arrived: 2026-05-05 09:33:54 CEST

Past data:
hh:mmknots
Dir (°)
°C
09:31 4.9 5.9 E(83) 15.7
09:29 4.3 5.9 E(91) 15.6
09:27 4.9 5.9 E(92) 15.6
09:25 4.3 7 E(92) 15.7
09:23 4.9 5.9 E(96) 16.0
09:21 3.8 4.9 ESE(113) 16.0
09:19 3.8 4.9 ESE(109) 16.1
09:17 5.4 8.1 E(91) 16.1
09:15 4.9 7 E(100) 16.0
09:13 4.3 5.9 E(94) 16.0
09:11 4.9 7.6 E(85) 15.8
09:09 4.9 5.9 ENE(78) 16.0
09:07 5.4 7 E(79) 16.0
09:05 5.4 7 ENE(70) 15.8
15 min. averages:
hh:mmknots
Dir (°)
°C
09:30 4.3 8.1 E(98) 15.9
09:15 4.9 8.1 E(80) 15.9
09:00 4.9 8.1 ENE(77) 15.7
08:45 4.9 10.3 ESE(117) 16.4
08:30 5.9 10.3 SE(125) 17.4
08:15 4.3 8.6 ESE(119) 17.2
08:00 3.8 7.6 E(97) 17.0
07:45 4.9 7.6 NE(54) 16.5
07:30 5.4 8.1 NE(44) 15.9
07:15 4.3 7.6 NE(42) 15.8
07:00 4.9 7.6 ENE(57) 15.8
06:45 4.9 7 ENE(73) 15.7
06:30 4.9 8.1 ENE(71) 15.7
06:15 5.9 8.6 ENE(70) 15.7
06:00 5.4 7.6 ENE(67) 15.7
Stations at HR:
1455
-> Other regions

Desktop view
Data provided by Holfuy.
© Holfuy Weather 2026